createdAt,value
2018-09-13T00:00:30.836Z,18.50
2018-09-13T00:03:05.975Z,20.97
2018-09-13T00:05:40.960Z,19.20
2018-09-13T00:08:15.981Z,18.03
2018-09-13T00:10:51.162Z,21.40
2018-09-13T00:13:25.839Z,27.30
2018-09-13T00:16:00.986Z,22.97
2018-09-13T00:18:36.084Z,20.23
2018-09-13T00:21:10.887Z,23.07
2018-09-13T00:23:46.174Z,23.70
2018-09-13T00:26:15.393Z,25.03
2018-09-13T00:28:50.126Z,25.67
2018-09-13T00:31:25.467Z,30.63
2018-09-13T00:34:01.675Z,25.37
2018-09-13T00:36:36.882Z,27.70
2018-09-13T00:39:11.703Z,33.47
2018-09-13T00:41:46.622Z,24.67
2018-09-13T00:44:21.736Z,28.37
2018-09-13T00:46:57.075Z,28.33
2018-09-13T00:49:32.038Z,25.60
2018-09-13T00:52:06.790Z,24.93
2018-09-13T00:54:42.360Z,27.23
2018-09-13T00:57:17.285Z,27.67
2018-09-13T00:59:59.091Z,28.73
2018-09-13T01:02:33.982Z,23.90
2018-09-13T01:05:08.689Z,27.17
2018-09-13T01:07:43.557Z,26.63
2018-09-13T01:10:18.494Z,26.87
2018-09-13T01:12:53.683Z,25.60
2018-09-13T01:15:29.160Z,30.50
2018-09-13T01:18:03.993Z,32.97
2018-09-13T01:20:38.796Z,32.43
2018-09-13T01:23:14.160Z,33.73
2018-09-13T01:25:49.187Z,30.67
2018-09-13T01:28:23.933Z,32.53
2018-09-13T01:30:58.818Z,30.80
2018-09-13T01:33:33.711Z,38.20
2018-09-13T01:36:08.840Z,36.03
2018-09-13T01:38:43.536Z,33.80
2018-09-13T01:41:18.589Z,40.50
2018-09-13T01:43:53.623Z,43.47
2018-09-13T01:46:28.518Z,39.77
2018-09-13T01:49:03.405Z,41.20
2018-09-13T01:51:38.388Z,42.03
2018-09-13T01:54:13.387Z,48.77
2018-09-13T01:56:48.450Z,39.50
2018-09-13T01:59:23.782Z,43.47
2018-09-13T02:01:59.320Z,41.00
2018-09-13T02:04:34.388Z,51.00
2018-09-13T02:07:09.370Z,52.90
2018-09-13T02:09:44.332Z,41.77
2018-09-13T02:12:19.329Z,49.27
2018-09-13T02:14:54.718Z,51.20
2018-09-13T02:17:29.441Z,54.80
2018-09-13T02:20:04.777Z,49.83
2018-09-13T02:22:39.854Z,48.30
2018-09-13T02:25:15.017Z,47.87
2018-09-13T02:27:49.962Z,56.90
2018-09-13T02:30:24.780Z,51.70
2018-09-13T02:32:59.778Z,55.27
2018-09-13T02:35:35.155Z,55.50
2018-09-13T02:38:10.060Z,59.00
2018-09-13T02:40:45.118Z,57.03
2018-09-13T02:43:20.446Z,52.97
2018-09-13T02:46:01.340Z,62.30
2018-09-13T02:48:36.329Z,59.27
2018-09-13T02:51:11.578Z,63.70
2018-09-13T02:53:46.527Z,67.23
2018-09-13T02:56:21.849Z,70.47
2018-09-13T02:58:56.701Z,76.03
2018-09-13T03:01:31.382Z,67.77
2018-09-13T03:04:06.625Z,62.57
2018-09-13T03:06:41.569Z,71.10
2018-09-13T03:09:16.374Z,73.63
2018-09-13T03:11:51.692Z,68.03
2018-09-13T03:14:26.572Z,77.67
2018-09-13T03:17:01.729Z,70.93
2018-09-13T03:19:36.597Z,83.80
2018-09-13T03:22:05.845Z,74.30
2018-09-13T03:24:42.540Z,78.97
2018-09-13T03:27:18.401Z,73.13
2018-09-13T03:29:53.599Z,62.37
2018-09-13T03:32:28.492Z,68.10
2018-09-13T03:35:03.735Z,57.27
2018-09-13T03:37:38.523Z,67.17
2018-09-13T03:40:13.272Z,67.23
2018-09-13T03:42:48.333Z,57.20
2018-09-13T03:45:23.743Z,68.40
2018-09-13T03:47:58.612Z,60.10
2018-09-13T03:50:33.659Z,66.20
2018-09-13T03:53:08.489Z,61.93
2018-09-13T03:55:44.049Z,68.10
2018-09-13T03:58:19.775Z,64.13
2018-09-13T04:00:54.514Z,60.43
2018-09-13T04:03:29.786Z,62.43
2018-09-13T04:06:04.771Z,60.30
2018-09-13T04:08:39.803Z,58.90
2018-09-13T04:11:14.885Z,67.60
2018-09-13T04:13:49.942Z,65.50
2018-09-13T04:16:24.853Z,68.27
2018-09-13T04:19:00.328Z,72.37
2018-09-13T04:21:36.114Z,65.87
2018-09-13T04:24:11.270Z,55.13
2018-09-13T04:26:46.809Z,64.40
2018-09-13T04:29:22.021Z,71.53
2018-09-13T04:31:57.127Z,59.10
2018-09-13T04:34:32.358Z,60.07
2018-09-13T04:37:07.583Z,65.57
2018-09-13T04:39:42.648Z,59.17
2018-09-13T04:42:17.416Z,66.07
2018-09-13T04:44:52.596Z,61.63
2018-09-13T04:47:27.772Z,58.67
2018-09-13T04:50:02.588Z,61.40
2018-09-13T04:52:38.121Z,67.00
2018-09-13T04:55:13.104Z,61.20
2018-09-13T04:57:48.505Z,58.63
2018-09-13T05:00:23.592Z,66.83
2018-09-13T05:02:58.771Z,57.10
2018-09-13T05:05:33.707Z,62.93
2018-09-13T05:08:08.467Z,55.70
2018-09-13T05:10:43.632Z,63.53
2018-09-13T05:13:18.829Z,63.30
2018-09-13T05:15:53.737Z,58.43
2018-09-13T05:18:28.687Z,59.00
2018-09-13T05:21:03.474Z,55.57
2018-09-13T05:23:38.722Z,63.83
2018-09-13T05:26:13.593Z,51.33
2018-09-13T05:28:49.565Z,55.70
2018-09-13T05:31:24.304Z,60.57
2018-09-13T05:33:59.433Z,58.47
2018-09-13T05:36:34.201Z,57.00
2018-09-13T05:39:13.869Z,63.63
2018-09-13T05:41:49.305Z,61.73
2018-09-13T05:44:24.319Z,56.53
2018-09-13T05:46:59.573Z,58.43
2018-09-13T05:49:34.597Z,58.27
2018-09-13T05:52:09.520Z,54.70
2018-09-13T05:54:44.501Z,60.17
2018-09-13T05:57:19.643Z,59.73
2018-09-13T05:59:54.606Z,60.60
2018-09-13T06:02:29.945Z,56.70
2018-09-13T06:05:05.569Z,58.80
2018-09-13T06:07:40.538Z,56.37
2018-09-13T06:10:16.256Z,61.27
2018-09-13T06:12:52.378Z,54.50
2018-09-13T06:15:27.338Z,56.10
2018-09-13T06:18:02.927Z,58.53
2018-09-13T06:20:38.657Z,54.07
2018-09-13T06:23:13.467Z,52.67
2018-09-13T06:25:48.111Z,51.30
2018-09-13T06:28:23.413Z,51.33
2018-09-13T06:30:58.501Z,49.90
2018-09-13T06:33:33.394Z,50.77
2018-09-13T06:36:08.297Z,51.17
2018-09-13T06:38:43.537Z,46.00
2018-09-13T06:41:18.142Z,56.00
2018-09-13T06:43:53.617Z,45.63
2018-09-13T06:46:28.620Z,50.43
2018-09-13T06:49:03.506Z,44.67
2018-09-13T06:51:38.308Z,44.20
2018-09-13T06:54:13.582Z,46.93
2018-09-13T06:56:48.522Z,45.20
2018-09-13T06:59:23.601Z,49.23
2018-09-13T07:01:58.493Z,43.20
2018-09-13T07:04:33.501Z,43.13
2018-09-13T07:07:08.307Z,42.50
2018-09-13T07:09:43.479Z,44.27
2018-09-13T07:12:18.357Z,47.90
2018-09-13T07:14:53.894Z,44.40
2018-09-13T07:17:29.106Z,44.40
2018-09-13T07:20:04.605Z,46.80
2018-09-13T07:22:39.853Z,46.20
2018-09-13T07:25:15.204Z,44.63
2018-09-13T07:27:50.241Z,46.83
2018-09-13T07:30:25.233Z,38.90
2018-09-13T07:33:00.373Z,44.43
2018-09-13T07:35:35.173Z,42.27
2018-09-13T07:38:10.502Z,38.87
2018-09-13T07:40:45.193Z,34.10
2018-09-13T07:43:20.412Z,37.00
2018-09-13T07:45:55.731Z,37.33
2018-09-13T07:48:31.064Z,37.00
2018-09-13T07:51:06.465Z,35.67
2018-09-13T07:53:42.066Z,32.50
2018-09-13T07:56:17.227Z,33.70
2018-09-13T07:58:52.466Z,31.57
2018-09-13T08:01:27.199Z,30.87
2018-09-13T08:04:02.251Z,28.23
2018-09-13T08:06:37.404Z,26.30
2018-09-13T08:09:13.987Z,27.47
2018-09-13T08:11:49.119Z,25.03
2018-09-13T08:14:24.456Z,27.30
2018-09-13T08:16:59.486Z,24.60
2018-09-13T08:19:34.532Z,30.23
2018-09-13T08:22:09.542Z,29.60
2018-09-13T08:24:44.438Z,30.73
2018-09-13T08:27:21.855Z,31.07
2018-09-13T08:29:57.215Z,34.90
2018-09-13T08:32:32.942Z,28.80
2018-09-13T08:35:07.994Z,31.67
2018-09-13T08:37:43.236Z,27.73
2018-09-13T08:40:18.181Z,31.23
2018-09-13T08:42:54.093Z,28.20
2018-09-13T08:45:29.273Z,27.70
2018-09-13T08:48:04.184Z,27.57
2018-09-13T08:50:38.980Z,28.10
2018-09-13T08:53:13.994Z,25.17
2018-09-13T08:55:49.352Z,31.57
2018-09-13T08:58:24.965Z,26.80
2018-09-13T09:01:00.640Z,31.93
2018-09-13T09:03:36.401Z,34.80
2018-09-13T09:06:11.327Z,24.00
2018-09-13T09:08:46.693Z,25.33
2018-09-13T09:11:22.390Z,26.13
2018-09-13T09:14:04.150Z,26.10
2018-09-13T09:16:39.957Z,24.20
2018-09-13T09:19:15.157Z,29.60
2018-09-13T09:21:51.414Z,23.87
2018-09-13T09:24:27.129Z,21.67
2018-09-13T09:27:02.471Z,22.40
2018-09-13T09:29:37.742Z,28.67
2018-09-13T09:32:12.616Z,32.53
2018-09-13T09:34:47.682Z,21.90
2018-09-13T09:37:22.753Z,38.43
2018-09-13T09:39:58.666Z,24.07
2018-09-13T09:42:34.135Z,21.57
2018-09-13T09:45:09.101Z,22.33
2018-09-13T09:47:44.164Z,16.63
2018-09-13T09:50:19.019Z,18.43
2018-09-13T09:52:54.377Z,17.97
2018-09-13T09:55:30.108Z,18.00
2018-09-13T09:58:05.753Z,15.87
2018-09-13T10:00:45.949Z,17.03
2018-09-13T10:03:20.987Z,43.20
2018-09-13T10:05:55.691Z,20.60
2018-09-13T10:08:30.591Z,20.27
2018-09-13T10:11:06.188Z,17.23
2018-09-13T10:13:41.521Z,17.93
2018-09-13T10:16:21.475Z,19.97
2018-09-13T10:19:01.577Z,22.40
2018-09-13T10:21:41.884Z,20.63
2018-09-13T10:24:22.242Z,19.90
2018-09-13T10:27:02.424Z,19.93
2018-09-13T10:29:42.907Z,17.93
2018-09-13T10:32:23.794Z,19.00
2018-09-13T10:35:03.687Z,21.30
2018-09-13T10:37:43.745Z,19.23
2018-09-13T10:40:24.012Z,40.23
2018-09-13T10:43:04.280Z,22.97
2018-09-13T10:45:45.531Z,19.70
2018-09-13T10:48:25.681Z,27.20
2018-09-13T10:51:06.569Z,36.77
2018-09-13T10:53:50.771Z,75.93
2018-09-13T10:56:25.656Z,36.00
2018-09-13T10:59:00.588Z,18.40
2018-09-13T11:01:35.595Z,29.97
2018-09-13T11:04:11.555Z,20.40
2018-09-13T11:06:46.611Z,27.70
2018-09-13T11:09:21.788Z,30.23
2018-09-13T11:11:56.713Z,27.50
2018-09-13T11:14:38.305Z,33.50
2018-09-13T11:17:13.320Z,44.13
2018-09-13T11:19:48.884Z,33.57
2018-09-13T11:22:23.971Z,26.77
2018-09-13T11:24:58.919Z,31.37
2018-09-13T11:27:34.262Z,35.70
2018-09-13T11:30:15.926Z,32.50
2018-09-13T11:32:51.279Z,35.27
2018-09-13T11:35:26.355Z,29.67
2018-09-13T11:38:02.185Z,31.80
2018-09-13T11:40:37.359Z,31.33
2018-09-13T11:43:16.902Z,37.10
2018-09-13T11:45:52.857Z,37.30
2018-09-13T11:48:33.145Z,38.83
2018-09-13T11:51:08.253Z,37.40
2018-09-13T11:53:43.280Z,43.03
2018-09-13T11:56:18.449Z,40.37
2018-09-13T11:58:53.733Z,43.80
2018-09-13T12:01:29.128Z,39.53
2018-09-13T12:04:04.380Z,39.70
2018-09-13T12:06:39.656Z,39.60
2018-09-13T12:09:15.803Z,47.33
2018-09-13T12:11:50.651Z,41.57
2018-09-13T12:14:25.513Z,42.93
2018-09-13T12:17:00.740Z,41.77
2018-09-13T12:19:35.706Z,41.87
2018-09-13T12:22:10.752Z,41.93
2018-09-13T12:24:40.577Z,43.73
2018-09-13T12:27:16.322Z,43.63
2018-09-13T12:29:51.253Z,39.20
2018-09-13T12:32:26.398Z,41.07
2018-09-13T12:35:01.505Z,40.90
2018-09-13T12:37:36.465Z,43.80
2018-09-13T12:40:11.837Z,39.17
2018-09-13T12:42:46.680Z,35.87
2018-09-13T12:45:21.885Z,40.53
2018-09-13T12:47:56.746Z,37.60
2018-09-13T12:50:31.682Z,37.70
2018-09-13T12:53:06.780Z,34.47
2018-09-13T12:55:46.948Z,36.33
2018-09-13T12:58:23.981Z,40.77
2018-09-13T13:00:58.711Z,44.80
2018-09-13T13:03:33.872Z,37.43
2018-09-13T13:06:09.415Z,36.23
2018-09-13T13:08:46.541Z,36.20
2018-09-13T13:11:21.517Z,40.77
2018-09-13T13:13:56.765Z,30.03
2018-09-13T13:16:32.769Z,32.77
2018-09-13T13:19:08.168Z,38.43
2018-09-13T13:21:43.316Z,33.17
2018-09-13T13:24:18.786Z,30.03
2018-09-13T13:26:53.941Z,31.20
2018-09-13T13:29:29.223Z,33.13
2018-09-13T13:32:04.815Z,32.10
2018-09-13T13:34:39.920Z,32.80
2018-09-13T13:37:15.141Z,29.17
2018-09-13T13:39:50.837Z,30.40
2018-09-13T13:42:26.290Z,32.00
2018-09-13T13:45:01.473Z,29.40
2018-09-13T13:47:36.753Z,30.70
2018-09-13T13:50:11.610Z,30.67
2018-09-13T13:52:47.529Z,34.00
2018-09-13T13:55:23.745Z,33.60
2018-09-13T13:57:59.006Z,30.40
2018-09-13T14:00:33.936Z,30.40
2018-09-13T14:03:09.078Z,30.80
2018-09-13T14:05:43.957Z,29.43
2018-09-13T14:08:19.265Z,32.67
2018-09-13T14:10:54.401Z,26.97
2018-09-13T14:13:29.527Z,28.83
2018-09-13T14:16:04.858Z,23.50
2018-09-13T14:18:39.729Z,25.03
2018-09-13T14:21:14.682Z,23.03
2018-09-13T14:23:50.454Z,23.20
2018-09-13T14:26:25.560Z,22.50
2018-09-13T14:29:00.524Z,23.03
2018-09-13T14:31:35.798Z,23.93
2018-09-13T14:34:11.017Z,25.80
2018-09-13T14:36:46.570Z,28.23
2018-09-13T14:39:21.475Z,24.60
2018-09-13T14:41:56.321Z,22.87
2018-09-13T14:44:31.171Z,23.97
2018-09-13T14:47:06.588Z,22.80
2018-09-13T14:49:41.627Z,22.80
2018-09-13T14:52:17.304Z,22.00
2018-09-13T14:54:52.280Z,22.27
2018-09-13T14:57:27.285Z,21.63
2018-09-13T15:00:02.808Z,22.33
2018-09-13T15:02:32.111Z,22.33
2018-09-13T15:05:07.423Z,23.40
2018-09-13T15:07:42.256Z,24.83
2018-09-13T15:10:17.931Z,20.97
2018-09-13T15:12:53.111Z,22.63
2018-09-13T15:15:28.619Z,23.30
2018-09-13T15:18:03.774Z,22.00
2018-09-13T15:20:39.043Z,20.10
2018-09-13T15:23:14.046Z,22.57
2018-09-13T15:25:53.014Z,21.03
2018-09-13T15:28:28.269Z,18.37
2018-09-13T15:31:03.459Z,20.77
2018-09-13T15:33:38.754Z,17.17
2018-09-13T15:36:13.924Z,21.20
2018-09-13T15:38:48.925Z,19.23
2018-09-13T15:41:24.310Z,20.20
2018-09-13T15:43:59.606Z,20.10
2018-09-13T15:46:34.567Z,19.73
2018-09-13T15:49:09.703Z,20.20
2018-09-13T15:51:44.803Z,18.43
2018-09-13T15:54:20.359Z,19.47
2018-09-13T15:56:55.634Z,20.60
2018-09-13T15:59:30.959Z,18.30
2018-09-13T16:02:06.153Z,18.87
2018-09-13T16:04:36.169Z,17.70
2018-09-13T16:07:11.190Z,19.70
2018-09-13T16:09:45.926Z,18.37
2018-09-13T16:12:21.029Z,18.50
2018-09-13T16:14:56.228Z,19.77
2018-09-13T16:17:31.014Z,20.23
2018-09-13T16:20:07.218Z,15.73
2018-09-13T16:22:42.502Z,16.93
2018-09-13T16:25:17.344Z,18.20
2018-09-13T16:27:52.678Z,14.07
2018-09-13T16:30:27.901Z,13.43
2018-09-13T16:32:57.965Z,15.33
2018-09-13T16:35:32.841Z,12.93
2018-09-13T16:38:13.361Z,14.33
2018-09-13T16:41:53.291Z,15.07
2018-09-13T16:44:33.709Z,14.20
2018-09-13T16:47:14.855Z,13.17
2018-09-13T16:49:49.998Z,12.13
2018-09-13T16:52:25.548Z,12.03
2018-09-13T16:55:00.484Z,12.30
2018-09-13T16:57:30.501Z,14.77
2018-09-13T17:00:05.985Z,12.27
2018-09-13T17:02:41.067Z,11.97
2018-09-13T17:05:16.318Z,12.40
2018-09-13T17:07:51.353Z,10.83
2018-09-13T17:10:27.471Z,13.57
2018-09-13T17:13:07.701Z,12.10
2018-09-13T17:15:43.025Z,16.50
2018-09-13T17:18:17.824Z,15.10
2018-09-13T17:20:52.909Z,16.87
2018-09-13T17:23:28.455Z,14.10
2018-09-13T17:25:58.494Z,15.90
2018-09-13T17:28:33.240Z,15.83
2018-09-13T17:31:08.685Z,14.63
2018-09-13T17:33:43.809Z,17.63
2018-09-13T17:36:18.978Z,16.30
2018-09-13T17:38:54.546Z,17.37
2018-09-13T17:41:29.455Z,17.23
2018-09-13T17:44:04.778Z,15.53
2018-09-13T17:46:43.551Z,19.83
2018-09-13T17:49:19.022Z,16.97
2018-09-13T17:51:54.091Z,18.30
2018-09-13T17:54:29.589Z,20.67
2018-09-13T17:57:04.556Z,19.93
2018-09-13T17:59:39.580Z,20.23
2018-09-13T18:02:14.428Z,19.67
2018-09-13T18:04:49.325Z,19.17
2018-09-13T18:07:24.671Z,20.50
2018-09-13T18:09:59.730Z,19.60
2018-09-13T18:12:29.345Z,21.50
2018-09-13T18:14:58.852Z,22.20
2018-09-13T18:17:29.336Z,23.80
2018-09-13T18:20:04.524Z,20.03
2018-09-13T18:22:39.529Z,21.40
2018-09-13T18:25:15.507Z,20.30
2018-09-13T18:27:50.569Z,22.20
2018-09-13T18:30:25.590Z,22.10
2018-09-13T18:33:00.666Z,21.60
2018-09-13T18:35:35.593Z,21.63
2018-09-13T18:38:10.475Z,21.63
2018-09-13T18:40:45.492Z,22.07
2018-09-13T18:43:20.474Z,22.07
2018-09-13T18:45:55.681Z,22.90
2018-09-13T18:48:25.098Z,21.37
2018-09-13T18:50:55.080Z,23.13
2018-09-13T18:53:30.826Z,20.83
2018-09-13T18:56:06.662Z,22.00
2018-09-13T18:58:41.730Z,25.23
2018-09-13T19:01:11.248Z,21.87
2018-09-13T19:03:46.866Z,21.97
2018-09-13T19:06:21.938Z,20.57
2018-09-13T19:08:57.012Z,23.40
2018-09-13T19:11:26.673Z,23.23
2018-09-13T19:14:01.910Z,22.47
2018-09-13T19:16:37.050Z,23.67
2018-09-13T19:19:12.292Z,28.73
2018-09-13T19:21:47.182Z,23.07
2018-09-13T19:24:32.314Z,22.70
2018-09-13T19:27:07.473Z,23.17
2018-09-13T19:29:42.881Z,23.40
2018-09-13T19:32:17.694Z,24.27
2018-09-13T19:34:52.690Z,23.07
2018-09-13T19:37:27.604Z,24.80
2018-09-13T19:40:02.488Z,24.93
2018-09-13T19:42:37.357Z,25.67
2018-09-13T19:45:12.307Z,23.57
2018-09-13T19:47:47.506Z,25.77
2018-09-13T19:50:23.227Z,24.80
2018-09-13T19:52:58.256Z,29.00
2018-09-13T19:55:33.593Z,25.37
2018-09-13T19:58:08.961Z,29.90
2018-09-13T20:00:44.307Z,21.23
2018-09-13T20:03:19.948Z,23.80
2018-09-13T20:05:55.479Z,23.23
2018-09-13T20:08:30.756Z,23.97
2018-09-13T20:11:06.014Z,23.70
2018-09-13T20:13:41.006Z,24.57
2018-09-13T20:16:16.681Z,23.20
2018-09-13T20:18:51.714Z,25.30
2018-09-13T20:21:26.904Z,24.57
2018-09-13T20:24:02.105Z,24.10
2018-09-13T20:26:37.286Z,23.67
2018-09-13T20:29:12.486Z,25.17
2018-09-13T20:31:47.713Z,24.93
2018-09-13T20:34:23.023Z,24.70
2018-09-13T20:37:04.960Z,23.37
2018-09-13T20:39:40.226Z,26.47
2018-09-13T20:42:15.410Z,25.90
2018-09-13T20:44:50.709Z,23.97
2018-09-13T20:47:25.792Z,25.00
2018-09-13T20:50:00.873Z,24.63
2018-09-13T20:52:35.912Z,25.33
2018-09-13T20:55:11.855Z,26.50
2018-09-13T20:57:46.892Z,26.13
2018-09-13T21:00:22.011Z,25.37
2018-09-13T21:02:51.637Z,25.10
2018-09-13T21:05:26.701Z,24.73
2018-09-13T21:08:02.118Z,23.93
2018-09-13T21:10:37.073Z,27.70
2018-09-13T21:13:12.123Z,26.70
2018-09-13T21:15:47.321Z,24.57
2018-09-13T21:18:22.727Z,24.93
2018-09-13T21:20:57.828Z,24.87
2018-09-13T21:23:33.201Z,26.10
2018-09-13T21:26:08.494Z,24.90
2018-09-13T21:28:43.287Z,23.87
2018-09-13T21:31:18.667Z,26.27
2018-09-13T21:33:53.781Z,28.17
2018-09-13T21:36:28.837Z,24.40
2018-09-13T21:39:06.318Z,24.93
2018-09-13T21:41:41.273Z,24.70
2018-09-13T21:44:16.283Z,27.43
2018-09-13T21:46:52.616Z,26.20
2018-09-13T21:49:27.668Z,24.63
2018-09-13T21:52:02.930Z,25.03
2018-09-13T21:54:38.374Z,26.13
2018-09-13T21:57:13.533Z,24.47
2018-09-13T21:59:42.727Z,23.67
2018-09-13T22:02:18.478Z,24.20
2018-09-13T22:04:53.378Z,21.43
2018-09-13T22:07:28.912Z,21.10
2018-09-13T22:10:07.960Z,18.40
2018-09-13T22:12:42.852Z,16.67
2018-09-13T22:15:17.872Z,21.03
2018-09-13T22:17:53.032Z,14.00
2018-09-13T22:20:27.849Z,14.10
2018-09-13T22:23:03.197Z,16.50
2018-09-13T22:25:38.451Z,12.97
2018-09-13T22:28:13.716Z,16.00
2018-09-13T22:30:48.344Z,16.70
2018-09-13T22:33:23.373Z,13.30
2018-09-13T22:35:58.915Z,13.30
2018-09-13T22:38:33.771Z,13.80
2018-09-13T22:41:08.749Z,19.30
2018-09-13T22:43:48.953Z,13.73
2018-09-13T22:46:24.738Z,9.87
2018-09-13T22:48:59.818Z,16.30
2018-09-13T22:51:35.369Z,10.47
2018-09-13T22:54:10.491Z,11.43
2018-09-13T22:56:45.923Z,13.93
2018-09-13T22:59:21.016Z,11.13
2018-09-13T23:01:56.020Z,12.60
2018-09-13T23:04:31.112Z,13.23
2018-09-13T23:07:06.267Z,9.50
2018-09-13T23:09:41.462Z,10.60
2018-09-13T23:12:16.222Z,9.67
2018-09-13T23:14:51.282Z,9.40
2018-09-13T23:17:26.152Z,12.37
2018-09-13T23:20:01.403Z,10.30
2018-09-13T23:22:36.306Z,10.47
2018-09-13T23:25:11.233Z,10.83
2018-09-13T23:27:46.171Z,14.70
2018-09-13T23:30:21.412Z,9.57
2018-09-13T23:32:56.493Z,8.23
2018-09-13T23:35:34.253Z,11.93
2018-09-13T23:38:09.126Z,10.27
2018-09-13T23:40:44.079Z,11.87
2018-09-13T23:43:18.877Z,10.07
2018-09-13T23:45:53.926Z,8.20
2018-09-13T23:48:28.573Z,9.53
2018-09-13T23:51:03.823Z,11.20
2018-09-13T23:53:38.678Z,8.33
2018-09-13T23:56:13.540Z,12.60
2018-09-13T23:58:48.545Z,12.67
